^^
Grace C. Lehan Memorial Weather Station Historical Data
Daily Summary for November 11, 2021 Units:  English    Metric   Both
Daily Weekly Monthly Yearly
  High: Low: Average:
Temperature: 59.8 °F 33.8 °F 46.5 °F
Dew Point: 45.5 °F 30.6 °F 37 °F
Humidity: 90% 45.2% 71%
Wind Speed: 1mph 0mph 0.1mph
Wind Gust: 6mph - -
Wind- - SE
Pressure: 30.33 in 30.24 in -
Precipitation: 0.00 in    
 
 
Tabular Data for November 11, 2021
Time Temperature Dew Point Pressure Wind Wind Speed Wind Gust Humidity Rainfall Rate (Hourly) solar
00:04 40.7 °F 32.6 °F 30.25 in Calm     72.5% 0.00 in 0 W/m2
00:09 40.7 °F 32.3 °F 30.25 in Calm     71.9% 0.00 in 0 W/m2
00:14 40.7 °F 32 °F 30.25 in Calm     71% 0.00 in 0 W/m2
00:19 40.8 °F 32 °F 30.25 in Calm     70.6% 0.00 in 0 W/m2
00:24 40.8 °F 31.8 °F 30.25 in Calm     70% 0.00 in 0 W/m2
00:29 40.9 °F 31.9 °F 30.26 in NW 0.1 mph 3 mph 70% 0.00 in 0 W/m2
00:34 41 °F 32.4 °F 30.26 in Calm   3 mph 71.3% 0.00 in 0 W/m2
00:39 40.9 °F 32.5 °F 30.26 in Calm     71.7% 0.00 in 0 W/m2
00:44 40.9 °F 32.2 °F 30.26 in Calm     70.8% 0.00 in 0 W/m2
00:49 40.9 °F 32 °F 30.26 in Calm     70.2% 0.00 in 0 W/m2
00:54 41.1 °F 32.7 °F 30.26 in Calm     71.8% 0.00 in 0 W/m2
00:59 41.2 °F 32.7 °F 30.26 in Calm     71.6% 0.00 in 0 W/m2
01:04 41.2 °F 32.5 °F 30.26 in Calm   1 mph 71% 0.00 in 0 W/m2
01:09 41 °F 32.3 °F 30.26 in Calm   1 mph 71% 0.00 in 0 W/m2
01:14 40.8 °F 32.1 °F 30.26 in NW 0.4 mph 2 mph 71% 0.00 in 0 W/m2
01:19 40.6 °F 32 °F 30.26 in NW 0.4 mph 2 mph 71% 0.00 in 0 W/m2
01:24 40.6 °F 32 °F 30.26 in Calm   2 mph 71% 0.00 in 0 W/m2
01:29 40.6 °F 31.8 °F 30.26 in Calm   2 mph 70.7% 0.00 in 0 W/m2
01:34 40.6 °F 31.6 °F 30.26 in NW 0.1 mph 2 mph 70% 0.00 in 0 W/m2
01:39 40.8 °F 32.1 °F 30.25 in Calm   2 mph 70.9% 0.00 in 0 W/m2
01:44 41.1 °F 32.1 °F 30.25 in Calm   2 mph 70.1% 0.00 in 0 W/m2
01:49 41.3 °F 31.9 °F 30.25 in Calm   2 mph 69% 0.00 in 0 W/m2
01:54 41.5 °F 32.1 °F 30.25 in Calm   2 mph 68.8% 0.00 in 0 W/m2
01:59 41.7 °F 32.6 °F 30.25 in Calm   2 mph 69.6% 0.00 in 0 W/m2
02:04 41.8 °F 33 °F 30.25 in Calm   2 mph 70.7% 0.00 in 0 W/m2
02:09 41.6 °F 32.9 °F 30.25 in Calm     71.1% 0.00 in 0 W/m2
02:14 41.4 °F 32.9 °F 30.25 in Calm     71.7% 0.00 in 0 W/m2
02:19 41.1 °F 32.8 °F 30.25 in Calm     72% 0.00 in 0 W/m2
02:24 40.9 °F 32.8 °F 30.25 in Calm     72.7% 0.00 in 0 W/m2
02:29 40.7 °F 32.4 °F 30.26 in Calm     72% 0.00 in 0 W/m2
02:34 40.6 °F 32.3 °F 30.26 in Calm     72% 0.00 in 0 W/m2
02:39 40.5 °F 32.2 °F 30.26 in Calm     72% 0.00 in 0 W/m2
02:44 40.5 °F 32.2 °F 30.25 in Calm     72% 0.00 in 0 W/m2
02:49 40.5 °F 32.2 °F 30.25 in NW 0.1 mph 1 mph 72% 0.00 in 0 W/m2
02:54 40.6 °F 32.6 °F 30.26 in Calm   1 mph 72.8% 0.00 in 0 W/m2
02:59 40.5 °F 32.6 °F 30.25 in Calm   1 mph 73% 0.00 in 0 W/m2
03:04 40.5 °F 32.6 °F 30.25 in Calm   1 mph 73.1% 0.00 in 0 W/m2
03:09 40.4 °F 33.1 °F 30.25 in Calm     74.9% 0.00 in 0 W/m2
03:14 40.1 °F 32.8 °F 30.26 in Calm     75% 0.00 in 0 W/m2
03:19 39.7 °F 32.6 °F 30.26 in Calm     75.4% 0.00 in 0 W/m2
03:24 39.4 °F 32.4 °F 30.26 in Calm     76% 0.00 in 0 W/m2
03:29 39 °F 32.1 °F 30.26 in Calm     76.2% 0.00 in 0 W/m2
03:34 38.7 °F 32.1 °F 30.26 in Calm     77.2% 0.00 in 0 W/m2
03:39 38.3 °F 32.1 °F 30.26 in Calm     78.1% 0.00 in 0 W/m2
03:44 38 °F 32 °F 30.26 in Calm     79% 0.00 in 0 W/m2
03:49 37.7 °F 32 °F 30.26 in Calm     79.6% 0.00 in 0 W/m2
03:54 37.6 °F 32.1 °F 30.26 in Calm     80.6% 0.00 in 0 W/m2
03:59 37.4 °F 32.1 °F 30.26 in Calm     80.8% 0.00 in 0 W/m2
04:00 37.3 °F 32 °F 30.26 in Calm     81% 0.00 in 0 W/m2
04:09 37 °F 31.8 °F 30.27 in Calm     81% 0.00 in 0 W/m2
04:14 36.9 °F 31.6 °F 30.27 in Calm     81% 0.00 in 0 W/m2
04:19 36.7 °F 31.7 °F 30.27 in Calm     81.8% 0.00 in 0 W/m2
04:24 36.6 °F 31.6 °F 30.27 in Calm     82% 0.00 in 0 W/m2
04:29 36.5 °F 31.6 °F 30.27 in Calm     82.2% 0.00 in 0 W/m2
04:34 36.4 °F 31.7 °F 30.27 in Calm     83% 0.00 in 0 W/m2
04:39 36.3 °F 31.6 °F 30.28 in Calm     83% 0.00 in 0 W/m2
04:44 36.3 °F 31.7 °F 30.28 in Calm     83.4% 0.00 in 0 W/m2
04:49 36.4 °F 32.2 °F 30.27 in Calm     84.7% 0.00 in 0 W/m2
04:54 36.5 °F 32.5 °F 30.28 in Calm     85% 0.00 in 0 W/m2
04:59 36.6 °F 32.4 °F 30.28 in Calm     84.4% 0.00 in 0 W/m2
05:04 36.5 °F 32.2 °F 30.28 in Calm     84% 0.00 in 0 W/m2
05:09 36.4 °F 32.1 °F 30.28 in Calm     84% 0.00 in 0 W/m2
05:14 36.2 °F 31.9 °F 30.28 in Calm     84% 0.00 in 0 W/m2
05:19 36.1 °F 31.7 °F 30.28 in Calm     84% 0.00 in 0 W/m2
05:24 35.9 °F 31.5 °F 30.28 in Calm     84% 0.00 in 0 W/m2
05:29 35.7 °F 31.4 °F 30.28 in Calm     84.1% 0.00 in 0 W/m2
05:34 35.6 °F 31.5 °F 30.28 in Calm     85% 0.00 in 0 W/m2
05:39 35.5 °F 31.4 °F 30.28 in Calm     85% 0.00 in 0 W/m2
05:44 35.3 °F 31.3 °F 30.28 in Calm     85% 0.00 in 0 W/m2
05:49 35.2 °F 31.2 °F 30.28 in Calm     85.1% 0.00 in 0 W/m2
05:54 35.1 °F 31.3 °F 30.28 in Calm     86% 0.00 in 0 W/m2
05:59 34.8 °F 31 °F 30.29 in Calm     86% 0.00 in 0 W/m2
06:04 34.6 °F 31 °F 30.29 in Calm     86.5% 0.00 in 0 W/m2
06:09 34.4 °F 31.3 °F 30.29 in Calm     88.3% 0.00 in 0 W/m2
06:14 34.4 °F 31 °F 30.29 in Calm     87.2% 0.00 in 0 W/m2
06:19 34.3 °F 31.2 °F 30.29 in Calm     88% 0.00 in 0 W/m2
06:24 34.3 °F 31.1 °F 30.29 in Calm     88% 0.00 in 0 W/m2
06:29 34.2 °F 31.1 °F 30.29 in Calm     88% 0.00 in 0 W/m2
06:34 34.2 °F 31 °F 30.29 in Calm     88% 0.00 in 0 W/m2
06:39 34.1 °F 30.9 °F 30.29 in Calm     88% 0.00 in 5 W/m2
06:44 34 °F 30.8 °F 30.29 in Calm     88% 0.00 in 5 W/m2
06:49 33.9 °F 30.7 °F 30.29 in Calm     88% 0.00 in 9 W/m2
06:54 33.8 °F 30.6 °F 30.29 in Calm     88% 0.00 in 12 W/m2
06:59 33.8 °F 30.7 °F 30.30 in Calm     88.2% 0.00 in 19 W/m2
07:04 33.8 °F 30.8 °F 30.30 in Calm     88.7% 0.00 in 26 W/m2
07:08 33.8 °F 30.9 °F 30.31 in Calm     89% 0.00 in 33 W/m2
07:14 34 °F 31.1 °F 30.31 in Calm     89% 0.00 in 42 W/m2
07:19 34.2 °F 31.3 °F 30.31 in Calm     89.1% 0.00 in 30 W/m2
07:24 34.4 °F 31.8 °F 30.31 in Calm     90% 0.00 in 32 W/m2
07:29 34.6 °F 32 °F 30.31 in Calm     90% 0.00 in 37 W/m2
07:34 34.9 °F 32.2 °F 30.32 in Calm     90% 0.00 in 54 W/m2
07:39 35.1 °F 32.5 °F 30.32 in Calm     90% 0.00 in 53 W/m2
07:44 35.4 °F 32.7 °F 30.32 in Calm     90% 0.00 in 54 W/m2
07:49 35.7 °F 33 °F 30.32 in Calm     90% 0.00 in 74 W/m2
07:54 36.1 °F 33.4 °F 30.32 in Calm     90% 0.00 in 178 W/m2
07:59 36.6 °F 33.9 °F 30.32 in Calm     90% 0.00 in 225 W/m2
08:00 36.9 °F 34.3 °F 30.32 in Calm     90% 0.00 in 204 W/m2
08:09 38.5 °F 35.6 °F 30.33 in Calm     89.5% 0.00 in 213 W/m2
08:14 39.6 °F 35.9 °F 30.33 in Calm     86.7% 0.00 in 262 W/m2
08:19 40.8 °F 35.9 °F 30.33 in Calm     82.6% 0.00 in 287 W/m2
08:24 42 °F 35.9 °F 30.32 in NNW 0.2 mph 3 mph 78.9% 0.00 in 301 W/m2
08:29 43.1 °F 36 °F 30.32 in NNW 0.1 mph 3 mph 75.8% 0.00 in 315 W/m2
08:34 44.1 °F 36 °F 30.32 in NNW 0.6 mph 3 mph 72.8% 0.00 in 327 W/m2
08:39 44.9 °F 36 °F 30.33 in Calm   3 mph 70.9% 0.00 in 341 W/m2
08:44 45.6 °F 36.1 °F 30.33 in North 0.3 mph 3 mph 69.2% 0.00 in 348 W/m2
08:49 46.3 °F 36.2 °F 30.33 in North 0.3 mph 4 mph 67.8% 0.00 in 352 W/m2
08:54 46.9 °F 35.8 °F 30.33 in NNE 0.5 mph 4 mph 65.3% 0.00 in 371 W/m2
08:59 47.3 °F 35.5 °F 30.32 in NNE 0.3 mph 4 mph 63.6% 0.00 in 376 W/m2
09:04 47.4 °F 34.8 °F 30.33 in NNE 0.5 mph 4 mph 61.4% 0.00 in 390 W/m2
09:09 47.2 °F 34.1 °F 30.33 in NE 0.6 mph 3 mph 60.3% 0.00 in 390 W/m2
09:14 46.9 °F 34.3 °F 30.33 in NE 0.1 mph 3 mph 61.4% 0.00 in 348 W/m2
09:19 46.9 °F 35.2 °F 30.33 in Calm   3 mph 63.5% 0.00 in 279 W/m2
09:24 46.9 °F 34.5 °F 30.33 in NE 0.6 mph 3 mph 61.7% 0.00 in 341 W/m2
09:29 46.8 °F 34.5 °F 30.33 in NE 0.1 mph 3 mph 62% 0.00 in 353 W/m2
09:34 46.7 °F 34.4 °F 30.33 in Calm   3 mph 61.8% 0.00 in 116 W/m2
09:39 46.6 °F 34.4 °F 30.33 in Calm     62.2% 0.00 in 90 W/m2
09:44 46.5 °F 34 °F 30.33 in Calm     61.5% 0.00 in 185 W/m2
09:49 46.5 °F 34.4 °F 30.33 in Calm     62.4% 0.00 in 221 W/m2
09:54 46.8 °F 34.9 °F 30.33 in NE 0.1 mph 1 mph 63% 0.00 in 221 W/m2
09:59 47.2 °F 35.2 °F 30.33 in Calm   1 mph 62.8% 0.00 in 179 W/m2
10:04 47.6 °F 35.1 °F 30.33 in Calm   1 mph 61.8% 0.00 in 179 W/m2
10:09 48.1 °F 35.4 °F 30.33 in Calm     61.2% 0.00 in 439 W/m2
10:14 48.7 °F 35.5 °F 30.33 in NE 0.1 mph 2 mph 60.1% 0.00 in 487 W/m2
10:19 49.6 °F 35.8 °F 30.33 in NE 0.1 mph 2 mph 58.9% 0.00 in 483 W/m2
10:24 50.5 °F 35.7 °F 30.33 in NE 0.5 mph 3 mph 56.8% 0.00 in 504 W/m2
10:29 51.4 °F 36.2 °F 30.33 in NE 0.2 mph 3 mph 55.9% 0.00 in 504 W/m2
10:34 52.3 °F 36.1 °F 30.33 in Calm   3 mph 53.9% 0.00 in 490 W/m2
10:39 53 °F 36.1 °F 30.33 in Calm     52.6% 0.00 in 436 W/m2
10:44 53.5 °F 36.3 °F 30.33 in Calm     52% 0.00 in 378 W/m2
10:49 53.9 °F 36 °F 30.33 in Calm     50.5% 0.00 in 229 W/m2
10:54 54.2 °F 36.2 °F 30.33 in Calm   1 mph 50.5% 0.00 in 350 W/m2
10:59 54.2 °F 36.2 °F 30.33 in Calm   1 mph 50.5% 0.00 in 281 W/m2
11:04 54.2 °F 36.3 °F 30.32 in Calm   1 mph 50.7% 0.00 in 234 W/m2
11:09 54.2 °F 36.3 °F 30.32 in Calm   1 mph 50.6% 0.00 in 315 W/m2
11:14 54.4 °F 36.5 °F 30.32 in Calm   1 mph 50.7% 0.00 in 195 W/m2
11:19 54.5 °F 35.5 °F 30.31 in Calm   1 mph 48.5% 0.00 in 188 W/m2
11:24 54.6 °F 34.6 °F 30.31 in NE 0.1 mph 1 mph 46.6% 0.00 in 237 W/m2
11:29 54.6 °F 34.9 °F 30.31 in Calm   1 mph 47.1% 0.00 in 262 W/m2
11:34 54.7 °F 35.1 °F 30.31 in Calm   1 mph 47.5% 0.00 in 316 W/m2
11:39 54.8 °F 35.2 °F 30.31 in Calm     47.4% 0.00 in 225 W/m2
11:44 55 °F 34.3 °F 30.30 in NE 0.3 mph 3 mph 45.5% 0.00 in 190 W/m2
11:49 55.1 °F 34.3 °F 30.30 in Calm   3 mph 45.2% 0.00 in 218 W/m2
11:54 55.3 °F 34.9 °F 30.29 in Calm   3 mph 46% 0.00 in 200 W/m2
11:59 55.5 °F 35.6 °F 30.29 in Calm   3 mph 47% 0.00 in 174 W/m2
12:00 55.6 °F 36.2 °F 30.28 in Calm   3 mph 48% 0.00 in 123 W/m2
12:09 56 °F 35.6 °F 30.29 in Calm     46.1% 0.00 in 167 W/m2
12:12 56.2 °F 35.7 °F 30.28 in Calm     46% 0.00 in 218 W/m2
13:00 57.1 °F 36.5 °F 30.26 in Calm   3 mph 46% 0.00 in 135 W/m2
14:00 59.8 °F 39.6 °F 30.25 in Calm   4 mph 47% 0.00 in 188 W/m2
14:30 58.8 °F 39.7 °F 30.25 in ESE 1 mph 6 mph 49% 0.00 in 104 W/m2
15:00 57.7 °F 39.7 °F 30.26 in Calm   6 mph 51% 0.00 in 63 W/m2
15:30 57.1 °F 39.7 °F 30.26 in Calm   4 mph 52% 0.00 in 51 W/m2
16:04 56.4 °F 40.3 °F 30.27 in South 0.2 mph 1 mph 54.7% 0.00 in 16 W/m2
16:09 56.3 °F 40.3 °F 30.27 in South 0.1 mph 2 mph 55% 0.00 in 14 W/m2
16:14 56.1 °F 40.3 °F 30.26 in SSE 0.2 mph 5 mph 55.3% 0.00 in 12 W/m2
16:19 55.8 °F 40.4 °F 30.26 in Calm   5 mph 56% 0.00 in 9 W/m2
16:24 55.6 °F 40.4 °F 30.26 in Calm   5 mph 56.5% 0.00 in 5 W/m2
16:29 55.4 °F 40.5 °F 30.27 in SE 0.1 mph 5 mph 57.1% 0.00 in 0 W/m2
16:34 55.2 °F 40.3 °F 30.27 in SE 0.1 mph 5 mph 57.2% 0.00 in 0 W/m2
16:39 55 °F 40.6 °F 30.27 in Calm   1 mph 58% 0.00 in 0 W/m2
16:44 54.9 °F 40.4 °F 30.27 in SE 0.1 mph 3 mph 58% 0.00 in 0 W/m2
16:49 54.8 °F 40.5 °F 30.27 in Calm   3 mph 58.4% 0.00 in 0 W/m2
16:54 54.6 °F 40.6 °F 30.27 in Calm   3 mph 59% 0.00 in 0 W/m2
16:59 54.4 °F 40.8 °F 30.27 in Calm   3 mph 59.9% 0.00 in 0 W/m2
17:04 54.4 °F 40.9 °F 30.27 in SE 0.3 mph 3 mph 60.3% 0.00 in 0 W/m2
17:09 54.3 °F 41.2 °F 30.27 in SSW 0.1 mph 3 mph 61% 0.00 in 0 W/m2
17:14 54.3 °F 41.3 °F 30.27 in Calm   3 mph 61.3% 0.00 in 0 W/m2
17:19 54.2 °F 41.5 °F 30.27 in Calm   3 mph 62% 0.00 in 0 W/m2
17:24 54.2 °F 41.5 °F 30.27 in Calm   3 mph 62% 0.00 in 0 W/m2
17:29 54.1 °F 41.4 °F 30.28 in Calm   3 mph 62.1% 0.00 in 0 W/m2
17:34 54 °F 41.7 °F 30.28 in Calm   3 mph 63% 0.00 in 0 W/m2
17:39 53.8 °F 41.5 °F 30.28 in Calm   1 mph 63% 0.00 in 0 W/m2
17:44 53.6 °F 41.6 °F 30.28 in Calm   1 mph 63.5% 0.00 in 0 W/m2
17:49 53.4 °F 41.6 °F 30.29 in South 0.1 mph 2 mph 64% 0.00 in 0 W/m2
17:54 53.3 °F 41.8 °F 30.29 in Calm   2 mph 65% 0.00 in 0 W/m2
17:59 53.1 °F 41.7 °F 30.29 in Calm   2 mph 65% 0.00 in 0 W/m2
18:04 53 °F 41.8 °F 30.29 in Calm   2 mph 65.6% 0.00 in 0 W/m2
18:09 53 °F 41.9 °F 30.29 in Calm     66% 0.00 in 0 W/m2
18:14 52.9 °F 41.9 °F 30.29 in Calm     66% 0.00 in 0 W/m2
18:19 52.9 °F 42.2 °F 30.29 in South 0.1 mph 2 mph 66.8% 0.00 in 0 W/m2
18:24 52.8 °F 42 °F 30.29 in Calm   2 mph 66.6% 0.00 in 0 W/m2
18:29 52.8 °F 42.1 °F 30.29 in Calm   2 mph 67% 0.00 in 0 W/m2
18:34 52.7 °F 42.1 °F 30.30 in Calm   2 mph 67% 0.00 in 0 W/m2
18:39 52.6 °F 42.3 °F 30.30 in Calm     67.7% 0.00 in 0 W/m2
18:44 52.6 °F 42.3 °F 30.29 in Calm     68% 0.00 in 0 W/m2
18:49 52.6 °F 42.3 °F 30.28 in Calm     68% 0.00 in 0 W/m2
18:54 52.5 °F 42.2 °F 30.28 in Calm     68% 0.00 in 0 W/m2
18:59 52.4 °F 42.3 °F 30.28 in Calm   1 mph 68.3% 0.00 in 0 W/m2
19:04 52.4 °F 42.5 °F 30.29 in Calm   1 mph 69% 0.00 in 0 W/m2
19:09 52.4 °F 42.5 °F 30.28 in Calm     69% 0.00 in 0 W/m2
19:14 52.4 °F 42.9 °F 30.28 in Calm   1 mph 69.9% 0.00 in 0 W/m2
19:19 52.4 °F 42.9 °F 30.27 in SSE 0.3 mph 3 mph 70% 0.00 in 0 W/m2
19:24 52.4 °F 42.9 °F 30.27 in SE 0.4 mph 3 mph 70% 0.00 in 0 W/m2
19:29 52.4 °F 43 °F 30.27 in ESE 0.3 mph 3 mph 70.3% 0.00 in 0 W/m2
19:34 52.4 °F 43.1 °F 30.27 in Calm   3 mph 70.4% 0.00 in 0 W/m2
19:39 52.4 °F 43.3 °F 30.28 in ESE 0.7 mph 3 mph 70.9% 0.00 in 0 W/m2
19:44 52.5 °F 43.4 °F 30.27 in ESE 0.5 mph 4 mph 71% 0.00 in 0 W/m2
19:49 52.6 °F 43.5 °F 30.27 in ESE 0.3 mph 4 mph 71% 0.00 in 0 W/m2
19:54 52.6 °F 43.5 °F 30.27 in Calm   4 mph 71% 0.00 in 0 W/m2
19:59 52.6 °F 43.5 °F 30.27 in ESE 0.4 mph 4 mph 71% 0.00 in 0 W/m2
20:09 52.6 °F 43.5 °F 30.27 in ESE 0.1 mph 3 mph 71% 0.00 in 0 W/m2
20:14 52.6 °F 43.5 °F 30.27 in ESE 0.3 mph 3 mph 71% 0.00 in 0 W/m2
20:19 52.7 °F 43.9 °F 30.27 in ESE 0.3 mph 3 mph 72% 0.00 in 0 W/m2
20:24 52.7 °F 43.9 °F 30.26 in ESE 0.1 mph 3 mph 72% 0.00 in 0 W/m2
20:29 52.7 °F 43.9 °F 30.26 in Calm   3 mph 72% 0.00 in 0 W/m2
20:34 52.7 °F 44 °F 30.26 in ESE 0.4 mph 3 mph 72% 0.00 in 0 W/m2
20:39 52.8 °F 44 °F 30.25 in ESE 0.1 mph 3 mph 72% 0.00 in 0 W/m2
20:44 52.8 °F 44.2 °F 30.25 in ESE 0.3 mph 3 mph 72.3% 0.00 in 0 W/m2
20:49 52.9 °F 44.3 °F 30.26 in Calm   3 mph 72.4% 0.00 in 0 W/m2
20:54 52.9 °F 44.3 °F 30.26 in ESE 0.3 mph 3 mph 72.4% 0.00 in 0 W/m2
20:59 52.9 °F 44.5 °F 30.26 in ESE 0.1 mph 3 mph 73% 0.00 in 0 W/m2
21:04 53 °F 44.6 °F 30.26 in Calm   3 mph 73% 0.00 in 0 W/m2
21:09 53 °F 44.6 °F 30.26 in Calm   1 mph 73% 0.00 in 0 W/m2
21:14 53 °F 44.6 °F 30.26 in ESE 0.3 mph 4 mph 73% 0.00 in 0 W/m2
21:19 53 °F 44.6 °F 30.26 in ESE 0.1 mph 4 mph 73% 0.00 in 0 W/m2
21:24 53 °F 44.6 °F 30.26 in ESE 0.1 mph 4 mph 73% 0.00 in 0 W/m2
21:29 53 °F 44.7 °F 30.27 in Calm   4 mph 73.4% 0.00 in 0 W/m2
21:34 53 °F 45 °F 30.27 in Calm   4 mph 74% 0.00 in 0 W/m2
21:39 53.1 °F 45 °F 30.27 in Calm     74% 0.00 in 0 W/m2
21:44 53.1 °F 45 °F 30.27 in Calm     74% 0.00 in 0 W/m2
21:49 53 °F 45 °F 30.27 in Calm     74% 0.00 in 0 W/m2
21:54 53 °F 45 °F 30.26 in Calm     74% 0.00 in 0 W/m2
21:59 53 °F 45.2 °F 30.26 in ESE 0.4 mph 3 mph 74.8% 0.00 in 0 W/m2
22:04 53 °F 45.3 °F 30.26 in Calm   3 mph 75% 0.00 in 0 W/m2
22:09 53 °F 45.3 °F 30.26 in ESE 0.3 mph 3 mph 75% 0.00 in 0 W/m2
22:14 53 °F 45.3 °F 30.26 in Calm   3 mph 75% 0.00 in 0 W/m2
22:19 53 °F 45.3 °F 30.26 in ESE 0.2 mph 3 mph 75% 0.00 in 0 W/m2
22:24 53 °F 45.3 °F 30.26 in ESE 0.3 mph 4 mph 75% 0.00 in 0 W/m2
22:29 53 °F 45.3 °F 30.26 in East 0.7 mph 5 mph 75% 0.00 in 0 W/m2
22:34 53 °F 45.3 °F 30.25 in East 0.5 mph 5 mph 75% 0.00 in 0 W/m2
22:36 53.1 °F 45.4 °F 30.25 in East 0.7 mph 3 mph 75% 0.00 in 0 W/m2
23:09 53.2 °F 45.1 °F 30.26 in Calm     74% 0.00 in 0 W/m2
23:14 53.2 °F 45.1 °F 30.25 in Calm     74% 0.00 in 0 W/m2
23:19 53.2 °F 45.1 °F 30.26 in Calm     74% 0.00 in 0 W/m2
23:24 53.2 °F 45.3 °F 30.26 in East 0.5 mph 3 mph 74.5% 0.00 in 0 W/m2
23:29 53.2 °F 45.2 °F 30.25 in Calm   3 mph 74.3% 0.00 in 0 W/m2
23:34 53.2 °F 45.3 °F 30.25 in Calm   3 mph 74.4% 0.00 in 0 W/m2
23:39 53.2 °F 45.5 °F 30.25 in East 0.7 mph 3 mph 75% 0.00 in 0 W/m2
23:44 53.2 °F 45.5 °F 30.24 in Calm   3 mph 75% 0.00 in 0 W/m2
23:49 53.2 °F 45.5 °F 30.25 in Calm   3 mph 75% 0.00 in 0 W/m2
23:54 53.2 °F 45.5 °F 30.25 in Calm   3 mph 75% 0.00 in 0 W/m2
23:59 53.2 °F 45.5 °F 30.25 in Calm   3 mph 75% 0.00 in 0 W/m2
Hartford County Weather
Compliments of Weather Underground - 2 mb